Time;durP1;ratioP1;P1;durP2;ratioP2;P2;SDS_P1;SDS_P2;PMS_P1;PMS_P2;Temp;Humidity;BMP_temperature;BMP_pressure;BME280_temperature;BME280_humidity;BME280_pressure;Samples;Min_cycle;Max_cycle;Signal;HPM_P1;HPM_P2
2021/07/25 00:00:06;;;;;;;10.48;8.77;;;24.90;60.40;;;;;;5053186;28;20086;-72
2021/07/25 00:02:50;;;;;;;12.55;8.98;;;24.80;60.40;;;;;;5053416;28;20405;-72
2021/07/25 00:05:35;;;;;;;11.93;9.65;;;24.80;60.60;;;;;;5053708;28;20082;-72
2021/07/25 00:08:19;;;;;;;12.90;8.75;;;24.70;60.50;;;;;;5058851;28;20139;-72
2021/07/25 00:11:03;;;;;;;12.75;9.25;;;24.70;60.70;;;;;;5034574;28;20044;-72
2021/07/25 00:13:51;;;;;;;10.98;8.60;;;24.70;60.80;;;;;;5044122;28;20116;-71
2021/07/25 00:16:36;;;;;;;11.52;9.30;;;24.70;60.80;;;;;;5054229;28;20059;-71
2021/07/25 00:19:20;;;;;;;10.90;8.90;;;24.60;60.80;;;;;;5051256;28;20032;-71
2021/07/25 00:22:05;;;;;;;13.68;9.75;;;24.60;60.90;;;;;;5052945;28;20079;-72
2021/07/25 00:25:07;;;;;;;10.57;9.15;;;24.60;60.90;;;;;;5037224;28;20508;-72
2021/07/25 00:27:52;;;;;;;11.32;9.00;;;24.50;61.20;;;;;;5053477;28;20040;-72
2021/07/25 00:30:36;;;;;;;10.77;9.32;;;24.50;61.30;;;;;;5052077;28;20051;-71
2021/07/25 00:33:20;;;;;;;12.55;10.35;;;24.40;61.40;;;;;;5053480;28;20048;-71
2021/07/25 00:36:06;;;;;;;13.18;9.95;;;24.40;61.40;;;;;;5034025;28;20032;-70
2021/07/25 00:38:50;;;;;;;14.60;10.68;;;24.30;61.50;;;;;;5046266;28;20076;-71
2021/07/25 00:41:34;;;;;;;11.43;9.93;;;24.30;61.50;;;;;;5052853;28;20102;-70
2021/07/25 00:44:19;;;;;;;11.20;9.88;;;24.20;61.60;;;;;;5052527;28;20043;-71
2021/07/25 00:47:03;;;;;;;12.02;9.73;;;24.20;61.90;;;;;;5053807;28;20044;-71
2021/07/25 00:49:47;;;;;;;13.27;10.60;;;24.20;62.00;;;;;;5048577;28;20052;-71
2021/07/25 00:52:31;;;;;;;12.20;10.00;;;24.10;62.00;;;;;;5053564;28;20032;-70
2021/07/25 00:55:15;;;;;;;11.55;9.57;;;24.00;62.20;;;;;;5037977;28;20040;-70
2021/07/25 00:58:01;;;;;;;13.05;9.77;;;24.00;62.30;;;;;;5033650;28;20084;-70
2021/07/25 01:00:47;;;;;;;13.45;9.40;;;23.90;62.40;;;;;;5036940;28;20551;-71
2021/07/25 01:04:05;;;;;;;12.63;9.50;;;23.90;62.90;;;;;;5052559;28;20032;-70
2021/07/25 01:07:01;;;;;;;11.73;9.52;;;23.90;62.90;;;;;;5050781;28;20044;-70
2021/07/25 01:10:02;;;;;;;12.50;10.30;;;23.90;63.10;;;;;;5035889;28;20036;-71
2021/07/25 01:12:57;;;;;;;13.18;10.80;;;23.80;63.00;;;;;;5033384;28;20132;-71
2021/07/25 01:15:43;;;;;;;12.13;9.63;;;23.70;63.10;;;;;;5049766;28;20087;-71
2021/07/25 01:18:29;;;;;;;10.52;8.73;;;23.70;63.20;;;;;;5052467;28;20488;-71
2021/07/25 01:21:17;;;;;;;12.20;10.23;;;23.70;63.40;;;;;;5045352;28;20062;-71
2021/07/25 01:24:03;;;;;;;14.75;10.77;;;23.70;63.80;;;;;;5050516;28;20076;-70
2021/07/25 01:26:49;;;;;;;12.18;9.45;;;23.60;63.80;;;;;;5051327;28;20055;-70
2021/07/25 01:29:36;;;;;;;14.43;10.13;;;23.60;64.00;;;;;;5051297;28;20400;-70
2021/07/25 01:32:23;;;;;;;16.23;11.60;;;23.60;64.10;;;;;;5051511;28;20366;-70
2021/07/25 01:35:12;;;;;;;13.18;9.63;;;23.50;64.20;;;;;;5048575;28;20078;-70
2021/07/25 01:37:58;;;;;;;14.45;10.13;;;23.50;64.40;;;;;;5051045;28;20508;-70
2021/07/25 01:41:05;;;;;;;12.90;10.80;;;23.40;64.50;;;;;;5051436;28;20021;-70
2021/07/25 01:43:51;;;;;;;12.52;10.05;;;23.40;64.60;;;;;;5047628;28;20492;-69
2021/07/25 01:46:39;;;;;;;13.93;9.75;;;23.40;64.90;;;;;;5047878;28;20025;-72
2021/07/25 01:49:25;;;;;;;13.63;10.48;;;23.30;64.90;;;;;;5045297;28;20519;-72
2021/07/25 01:52:11;;;;;;;14.73;10.13;;;23.30;65.10;;;;;;5049268;28;20501;-70
2021/07/25 01:54:56;;;;;;;14.35;10.32;;;23.20;65.40;;;;;;5050071;28;20029;-70
2021/07/25 01:57:44;;;;;;;13.25;9.70;;;23.20;65.50;;;;;;5048717;28;20123;-70
2021/07/25 02:00:30;;;;;;;13.18;10.45;;;23.20;65.50;;;;;;5032810;28;20024;-71
2021/07/25 02:03:21;;;;;;;14.82;11.18;;;23.10;65.70;;;;;;5043275;28;20386;-71
2021/07/25 02:06:07;;;;;;;14.95;10.15;;;23.10;65.80;;;;;;5051778;28;20036;-71
2021/07/25 02:08:53;;;;;;;13.15;10.13;;;23.00;66.00;;;;;;5035910;28;20028;-71
2021/07/25 02:11:39;;;;;;;12.98;10.60;;;23.00;66.00;;;;;;5050020;28;20025;-71
2021/07/25 02:14:25;;;;;;;14.73;10.90;;;23.00;66.10;;;;;;5044267;28;20035;-71
2021/07/25 02:17:11;;;;;;;13.40;10.63;;;22.90;66.20;;;;;;5050412;28;20036;-72
2021/07/25 02:19:57;;;;;;;14.73;10.32;;;22.90;66.30;;;;;;5052463;28;20028;-72
2021/07/25 02:22:42;;;;;;;13.52;10.27;;;22.90;66.50;;;;;;5048759;28;20044;-72
2021/07/25 02:25:28;;;;;;;12.50;10.15;;;22.80;66.60;;;;;;5036588;28;20086;-72
2021/07/25 02:28:14;;;;;;;15.02;10.32;;;22.80;66.60;;;;;;5049478;28;20374;-72
2021/07/25 02:31:00;;;;;;;17.58;10.15;;;22.80;66.60;;;;;;5050010;28;20393;-72
2021/07/25 02:33:46;;;;;;;12.18;9.95;;;22.80;67.00;;;;;;5034688;28;20033;-70
2021/07/25 02:36:32;;;;;;;14.23;10.13;;;22.80;67.10;;;;;;5051718;28;20028;-72
2021/07/25 02:39:17;;;;;;;13.65;10.02;;;22.70;67.10;;;;;;5043206;28;20086;-73
2021/07/25 02:42:04;;;;;;;11.30;9.40;;;22.60;67.20;;;;;;5048937;28;20573;-73
2021/07/25 02:44:50;;;;;;;15.20;10.18;;;22.70;67.40;;;;;;5040667;28;20064;-73
2021/07/25 02:47:35;;;;;;;13.38;10.73;;;22.60;67.50;;;;;;5048812;28;20040;-73
2021/07/25 02:50:21;;;;;;;12.90;9.85;;;22.60;67.70;;;;;;5044980;28;20037;-72
2021/07/25 02:53:07;;;;;;;15.27;10.65;;;22.60;68.00;;;;;;5046140;28;20495;-72
2021/07/25 02:55:53;;;;;;;14.27;11.35;;;22.50;68.00;;;;;;5049614;28;20025;-73
2021/07/25 02:58:39;;;;;;;14.05;10.45;;;22.50;68.10;;;;;;5048500;28;20453;-73
2021/07/25 03:01:25;;;;;;;12.15;9.80;;;22.50;68.20;;;;;;5048742;28;20078;-73
2021/07/25 03:04:10;;;;;;;12.60;10.23;;;22.50;68.50;;;;;;5049772;28;20068;-71
2021/07/25 03:06:56;;;;;;;16.00;10.52;;;22.40;68.70;;;;;;5048249;28;20025;-71
2021/07/25 03:09:42;;;;;;;17.48;9.57;;;22.40;68.80;;;;;;5044996;28;20032;-71
2021/07/25 03:12:27;;;;;;;;;;;22.40;68.90;;;;;;5048140;28;20039;-73
2021/07/25 03:15:11;;;;;;;12.02;9.48;;;22.40;68.50;;;;;;5051008;28;19943;-74
2021/07/25 03:17:55;;;;;;;12.93;9.60;;;22.30;69.00;;;;;;5049870;28;20118;-73
2021/07/25 03:20:39;;;;;;;13.27;10.32;;;22.30;69.20;;;;;;5050391;28;20136;-73
2021/07/25 03:23:24;;;;;;;18.70;12.15;;;22.30;69.40;;;;;;5049435;28;20044;-74
2021/07/25 03:26:08;;;;;;;11.88;9.88;;;22.20;69.50;;;;;;5051519;28;20090;-74
2021/07/25 03:28:52;;;;;;;12.65;10.07;;;22.20;69.80;;;;;;5032682;28;20086;-74
2021/07/25 03:31:36;;;;;;;13.33;9.53;;;22.20;69.90;;;;;;5050949;28;20040;-74
2021/07/25 03:34:20;;;;;;;12.77;9.93;;;22.20;70.10;;;;;;5035460;28;20508;-74
2021/07/25 03:37:04;;;;;;;14.52;9.95;;;22.20;70.50;;;;;;5042651;28;20527;-74
2021/07/25 03:39:52;;;;;;;13.20;10.70;;;22.10;70.50;;;;;;5059158;28;20028;-75
2021/07/25 03:42:36;;;;;;;13.57;10.27;;;22.10;70.70;;;;;;5056422;28;20067;-74
2021/07/25 03:45:21;;;;;;;13.88;10.85;;;22.10;70.90;;;;;;5056307;28;20040;-75
2021/07/25 03:48:05;;;;;;;15.88;10.68;;;22.10;71.10;;;;;;5057153;28;20548;-74
2021/07/25 03:50:50;;;;;;;16.50;10.90;;;22.10;71.20;;;;;;5061679;28;20040;-74
2021/07/25 03:53:34;;;;;;;16.55;9.73;;;22.10;71.40;;;;;;5064133;28;20051;-74
2021/07/25 03:56:19;;;;;;;12.20;10.17;;;22.10;71.60;;;;;;5039599;28;20044;-74
2021/07/25 03:59:04;;;;;;;13.52;10.73;;;22.10;71.90;;;;;;5039625;28;20374;-74
2021/07/25 04:01:48;;;;;;;13.93;10.35;;;22.10;72.00;;;;;;5051199;28;20112;-75
2021/07/25 04:04:32;;;;;;;15.38;11.48;;;22.10;72.20;;;;;;5054690;28;20094;-74
2021/07/25 04:07:16;;;;;;;18.35;10.68;;;22.00;72.30;;;;;;5067574;28;20047;-74
2021/07/25 04:10:00;;;;;;;13.52;10.55;;;22.00;72.40;;;;;;5038263;28;20164;-74
2021/07/25 04:12:44;;;;;;;13.32;10.55;;;22.10;72.60;;;;;;5038402;28;20040;-74
2021/07/25 04:15:28;;;;;;;17.95;12.50;;;22.00;72.80;;;;;;5032928;28;20041;-73
2021/07/25 04:18:12;;;;;;;13.57;10.60;;;22.00;73.10;;;;;;5045583;28;20106;-74
2021/07/25 04:20:56;;;;;;;15.43;10.45;;;22.00;73.10;;;;;;5055010;28;20059;-77
2021/07/25 04:23:41;;;;;;;14.38;10.23;;;22.00;73.20;;;;;;5049174;28;20501;-77
2021/07/25 04:26:25;;;;;;;16.48;10.65;;;22.00;73.50;;;;;;5052704;28;20155;-75
2021/07/25 04:29:09;;;;;;;13.93;10.80;;;22.00;73.90;;;;;;5053929;28;20036;-74
2021/07/25 04:31:54;;;;;;;14.23;11.13;;;22.10;74.10;;;;;;5052163;28;20086;-73
2021/07/25 04:34:40;;;;;;;16.33;9.90;;;22.10;74.10;;;;;;5053393;28;20078;-72
2021/07/25 04:37:29;;;;;;;14.52;10.50;;;22.10;74.50;;;;;;5052753;28;20036;-73
2021/07/25 04:40:14;;;;;;;15.98;10.60;;;22.00;74.80;;;;;;5054124;28;20043;-75
2021/07/25 04:42:59;;;;;;;18.40;10.63;;;22.10;75.00;;;;;;5049947;28;20114;-76
2021/07/25 04:45:56;;;;;;;13.43;10.27;;;22.10;75.20;;;;;;5048347;28;20531;-74
2021/07/25 04:48:59;;;;;;;16.52;10.75;;;22.00;75.10;;;;;;5051805;28;20508;-74
2021/07/25 04:51:46;;;;;;;13.75;9.65;;;22.10;75.50;;;;;;5047143;28;20047;-74
2021/07/25 04:54:34;;;;;;;13.23;10.10;;;22.10;75.40;;;;;;5049482;28;20048;-74
2021/07/25 04:57:23;;;;;;;14.43;10.25;;;22.10;75.50;;;;;;5050105;28;20122;-75
2021/07/25 05:00:13;;;;;;;14.70;10.20;;;22.10;75.80;;;;;;5033943;28;20492;-76
2021/07/25 05:03:02;;;;;;;14.50;9.95;;;22.20;75.70;;;;;;5042827;28;20031;-76
2021/07/25 05:05:46;;;;;;;13.68;10.75;;;22.20;75.90;;;;;;5052303;28;20358;-75
2021/07/25 05:08:31;;;;;;;12.73;10.15;;;22.20;75.90;;;;;;5046563;28;20039;-75
2021/07/25 05:11:24;;;;;;;11.45;9.68;;;22.20;75.90;;;;;;5052943;28;20450;-75
2021/07/25 05:14:33;;;;;;;16.63;10.52;;;22.20;76.00;;;;;;5047032;28;20086;-73
2021/07/25 05:17:44;;;;;;;13.30;10.25;;;22.30;75.90;;;;;;5045534;28;20045;-81
2021/07/25 05:20:38;;;;;;;13.25;9.77;;;22.30;75.90;;;;;;5051876;28;20033;-81
2021/07/25 05:23:31;;;;;;;12.98;10.55;;;22.30;76.40;;;;;;5043800;28;20025;-80
2021/07/25 05:26:23;;;;;;;13.45;10.90;;;22.40;76.40;;;;;;5052181;28;20025;-80
2021/07/25 05:29:11;;;;;;;14.15;10.25;;;22.40;76.70;;;;;;5051116;28;20032;-74
2021/07/25 05:31:56;;;;;;;12.90;9.77;;;22.50;76.70;;;;;;5048587;28;20036;-74
2021/07/25 05:34:42;;;;;;;13.48;9.95;;;22.50;76.40;;;;;;5052525;28;20033;-74
2021/07/25 05:37:28;;;;;;;14.80;10.98;;;22.60;76.60;;;;;;5049065;28;20033;-74
2021/07/25 05:40:15;;;;;;;14.52;9.52;;;22.60;76.70;;;;;;5051465;28;20071;-75
2021/07/25 05:43:01;;;;;;;15.05;10.38;;;22.60;76.70;;;;;;5048561;28;20037;-75
2021/07/25 05:45:47;;;;;;;11.43;10.23;;;22.70;76.60;;;;;;5050162;28;22822;-75
2021/07/25 05:48:32;;;;;;;14.13;10.90;;;22.80;77.00;;;;;;5049009;28;20048;-73
2021/07/25 05:51:18;;;;;;;14.50;10.50;;;22.90;77.20;;;;;;5050317;28;20025;-73
2021/07/25 05:54:04;;;;;;;13.23;10.55;;;22.90;77.90;;;;;;5049827;28;20135;-73
2021/07/25 05:56:50;;;;;;;18.27;12.70;;;22.90;77.30;;;;;;5049090;28;20033;-73
2021/07/25 05:59:36;;;;;;;13.30;10.02;;;23.00;77.20;;;;;;5034599;28;20029;-73
2021/07/25 06:02:22;;;;;;;12.63;10.65;;;23.10;77.60;;;;;;5049666;28;20473;-73
2021/07/25 06:05:08;;;;;;;14.13;10.40;;;23.20;77.10;;;;;;5036957;28;20120;-72
2021/07/25 06:07:54;;;;;;;13.10;11.48;;;23.20;77.00;;;;;;5048890;28;20028;-73
2021/07/25 06:10:42;;;;;;;13.05;9.95;;;23.40;77.10;;;;;;5051387;28;20423;-72
2021/07/25 06:13:28;;;;;;;13.70;10.80;;;23.40;77.30;;;;;;5049124;28;20111;-73
2021/07/25 06:16:14;;;;;;;12.45;10.88;;;23.50;77.80;;;;;;5037306;28;20036;-72
2021/07/25 06:19:00;;;;;;;14.52;11.50;;;23.60;77.30;;;;;;5049437;28;20059;-72
2021/07/25 06:21:45;;;;;;;12.52;10.85;;;23.70;76.70;;;;;;5049282;28;20021;-71
2021/07/25 06:24:31;;;;;;;15.27;11.30;;;23.90;77.00;;;;;;5043600;28;20033;-73
2021/07/25 06:27:17;;;;;;;12.85;10.20;;;23.90;76.60;;;;;;5048840;28;20171;-72
2021/07/25 06:30:05;;;;;;;13.93;10.68;;;24.00;76.60;;;;;;5050722;28;20500;-72
2021/07/25 06:33:07;;;;;;;14.23;11.18;;;24.10;75.40;;;;;;5046046;28;20054;-71
2021/07/25 06:35:53;;;;;;;12.07;9.65;;;24.20;75.50;;;;;;5031612;28;20041;-72
2021/07/25 06:38:40;;;;;;;13.35;10.43;;;24.20;75.40;;;;;;5044184;28;20036;-73
2021/07/25 06:41:26;;;;;;;15.05;11.07;;;24.30;75.10;;;;;;5051883;28;20031;-75
2021/07/25 06:44:11;;;;;;;14.38;10.55;;;24.30;75.10;;;;;;5050814;28;20091;-72
2021/07/25 06:46:57;;;;;;;14.57;10.95;;;24.40;75.30;;;;;;5049367;28;20060;-78
2021/07/25 06:49:43;;;;;;;16.95;11.32;;;24.30;74.90;;;;;;5032116;28;20841;-68
2021/07/25 06:52:29;;;;;;;12.20;10.63;;;24.40;75.60;;;;;;5032014;28;20021;-74
2021/07/25 06:55:15;;;;;;;11.45;10.13;;;24.40;75.10;;;;;;5045214;28;20036;-73
2021/07/25 06:58:01;;;;;;;15.88;10.95;;;24.50;75.40;;;;;;5042242;28;20396;-74
2021/07/25 07:00:47;;;;;;;13.88;9.98;;;24.50;74.80;;;;;;5047065;28;20485;-73
2021/07/25 07:03:33;;;;;;;14.43;10.68;;;24.60;75.20;;;;;;5047039;28;20036;-74
2021/07/25 07:06:19;;;;;;;16.23;10.45;;;24.60;75.10;;;;;;5049467;28;20530;-73
2021/07/25 07:09:04;;;;;;;13.00;10.32;;;24.70;74.80;;;;;;5047726;28;20396;-73
2021/07/25 07:11:50;;;;;;;14.27;10.93;;;24.70;74.70;;;;;;5034077;28;20485;-73
2021/07/25 07:14:34;;;;;;;14.35;11.50;;;24.80;74.70;;;;;;5045704;28;20128;-72
2021/07/25 07:17:22;;;;;;;12.82;10.57;;;24.80;74.30;;;;;;5028621;28;20147;-73
2021/07/25 07:20:07;;;;;;;12.23;9.85;;;24.90;74.20;;;;;;5048454;28;20028;-72
2021/07/25 07:22:57;;;;;;;13.45;10.90;;;25.00;74.60;;;;;;5047857;28;20040;-74
2021/07/25 07:25:49;;;;;;;14.68;10.65;;;25.00;74.10;;;;;;5042836;28;20049;-73
2021/07/25 07:28:33;;;;;;;13.82;10.95;;;25.10;74.10;;;;;;5040379;28;20064;-72
2021/07/25 07:31:17;;;;;;;11.73;9.30;;;25.20;73.50;;;;;;5043774;28;20527;-73
2021/07/25 07:34:01;;;;;;;11.63;9.55;;;25.30;72.70;;;;;;5040891;28;20051;-74
2021/07/25 07:36:45;;;;;;;12.57;10.15;;;25.30;72.80;;;;;;5032847;28;20179;-73
2021/07/25 07:39:30;;;;;;;13.23;10.57;;;25.40;72.40;;;;;;5016321;28;20048;-72
2021/07/25 07:42:14;;;;;;;11.65;9.75;;;25.50;72.60;;;;;;5040549;28;20397;-73
2021/07/25 07:44:58;;;;;;;13.73;10.13;;;25.70;71.50;;;;;;5031117;28;20035;-72
2021/07/25 07:47:42;;;;;;;12.63;9.82;;;25.70;71.10;;;;;;5032017;28;20040;-73
2021/07/25 07:50:26;;;;;;;12.15;10.05;;;25.80;71.30;;;;;;5051510;28;20047;-71
2021/07/25 07:53:11;;;;;;;12.20;9.38;;;26.00;71.60;;;;;;5042759;28;20501;-71
2021/07/25 07:55:55;;;;;;;14.60;9.68;;;26.00;70.50;;;;;;5063332;28;20126;-73
2021/07/25 07:58:39;;;;;;;11.43;10.23;;;26.10;70.10;;;;;;5050712;28;20409;-77
2021/07/25 08:01:24;;;;;;;13.57;9.60;;;26.20;69.80;;;;;;5052569;28;20039;-73
2021/07/25 08:04:07;;;;;;;11.55;9.60;;;26.30;70.00;;;;;;5052392;28;20040;-73
2021/07/25 08:06:52;;;;;;;13.23;10.38;;;26.30;70.30;;;;;;5043757;28;20451;-73
2021/07/25 08:09:36;;;;;;;11.40;10.07;;;26.40;71.00;;;;;;5019826;28;20500;-73
2021/07/25 08:12:20;;;;;;;10.30;9.15;;;26.50;70.40;;;;;;5046221;28;20110;-73
2021/07/25 08:15:05;;;;;;;;;;;26.50;69.90;;;;;;5055157;28;20040;-73
2021/07/25 08:17:49;;;;;;;10.88;9.43;;;26.50;69.90;;;;;;5047676;28;19970;-73
2021/07/25 08:20:33;;;;;;;11.23;9.15;;;26.50;69.40;;;;;;5049365;28;20083;-73
2021/07/25 08:23:17;;;;;;;13.07;9.77;;;26.50;70.60;;;;;;5045410;28;20098;-73
2021/07/25 08:26:01;;;;;;;12.50;9.70;;;26.60;70.90;;;;;;5058460;28;20051;-74
2021/07/25 08:28:45;;;;;;;12.75;11.32;;;26.70;70.60;;;;;;5051694;28;20040;-73
2021/07/25 08:31:29;;;;;;;12.13;10.25;;;26.70;70.70;;;;;;5046142;28;20059;-73
2021/07/25 08:34:13;;;;;;;12.48;9.93;;;26.70;70.90;;;;;;5030285;28;20040;-74
2021/07/25 08:36:58;;;;;;;20.05;10.40;;;26.80;70.10;;;;;;5047978;28;20516;-73
2021/07/25 08:39:42;;;;;;;12.55;9.35;;;26.90;72.10;;;;;;5045767;28;20167;-73
2021/07/25 08:42:26;;;;;;;11.88;9.73;;;27.00;72.50;;;;;;5045422;28;20062;-73
2021/07/25 08:45:11;;;;;;;12.38;9.63;;;27.00;70.90;;;;;;5050777;28;20040;-77
2021/07/25 08:48:01;;;;;;;;;;;27.10;70.50;;;;;;5052525;28;20075;-73
2021/07/25 08:50:56;;;;;;;11.90;9.80;;;27.10;70.00;;;;;;5047657;28;19946;-73
2021/07/25 08:53:47;;;;;;;15.48;10.98;;;27.20;69.60;;;;;;5047284;28;20102;-71
2021/07/25 08:56:34;;;;;;;12.43;10.05;;;27.30;69.40;;;;;;5048975;28;20040;-71
2021/07/25 08:59:18;;;;;;;13.57;9.77;;;27.30;69.10;;;;;;5048964;28;20036;-72
2021/07/25 09:02:05;;;;;;;;;;;27.40;69.10;;;;;;5050578;28;20060;-72
2021/07/25 09:04:50;;;;;;;11.35;9.07;;;27.50;69.30;;;;;;5046290;28;19996;-71
2021/07/25 09:07:37;;;;;;;13.50;9.88;;;27.60;69.10;;;;;;5046718;28;20039;-71
2021/07/25 09:10:22;;;;;;;15.60;8.90;;;27.60;68.20;;;;;;5042785;28;20091;-72
2021/07/25 09:13:02;;;;;;;13.82;10.48;;;27.70;67.90;;;;;;5045860;28;20033;-71
2021/07/25 09:15:46;;;;;;;14.07;10.13;;;27.80;67.40;;;;;;5031270;28;20036;-71
2021/07/25 09:18:32;;;;;;;12.82;10.00;;;27.90;66.60;;;;;;5046814;28;20489;-72
2021/07/25 09:21:43;;;;;;;10.88;9.00;;;27.90;65.60;;;;;;5050702;28;20031;-72
2021/07/25 09:24:31;;;;;;;10.50;9.07;;;28.00;65.70;;;;;;5048121;28;20120;-72
2021/07/25 09:27:23;;;;;;;12.45;9.75;;;28.00;65.90;;;;;;5041305;28;20029;-73
2021/07/25 09:30:19;;;;;;;12.52;9.93;;;28.10;65.70;;;;;;5050572;28;20063;-72
2021/07/25 09:33:32;;;;;;;9.98;8.70;;;28.20;65.80;;;;;;5040852;28;20422;-74
2021/07/25 09:36:22;;;;;;;14.35;10.52;;;28.30;66.30;;;;;;5044503;28;20421;-74
2021/07/25 09:39:08;;;;;;;10.43;9.13;;;28.40;65.00;;;;;;5047148;28;20028;-74
2021/07/25 09:41:54;;;;;;;12.82;9.88;;;28.50;64.50;;;;;;5050871;28;20033;-73
2021/07/25 09:44:45;;;;;;;13.55;9.63;;;28.60;64.30;;;;;;5048792;28;20036;-73
2021/07/25 09:47:33;;;;;;;11.38;9.35;;;28.60;63.90;;;;;;5047363;28;20032;-71
2021/07/25 09:50:26;;;;;;;13.55;9.63;;;28.60;64.20;;;;;;5016121;28;20049;-72
2021/07/25 09:53:13;;;;;;;12.38;9.95;;;28.70;64.30;;;;;;5010425;28;20076;-71
2021/07/25 09:56:12;;;;;;;11.05;9.20;;;28.80;64.00;;;;;;5012199;28;20117;-71
2021/07/25 09:58:59;;;;;;;11.73;9.27;;;28.90;63.80;;;;;;4992813;28;20035;-73
2021/07/25 10:01:45;;;;;;;12.95;9.73;;;28.90;63.40;;;;;;5006499;28;20010;-72
2021/07/25 10:04:31;;;;;;;11.50;10.00;;;29.00;63.30;;;;;;4995877;28;20030;-73
2021/07/25 10:07:23;;;;;;;10.88;9.63;;;29.10;63.30;;;;;;5002380;28;20022;-73
2021/07/25 10:10:11;;;;;;;12.77;10.80;;;29.00;62.40;;;;;;5015937;28;20498;-73
2021/07/25 10:12:57;;;;;;;10.82;9.70;;;29.00;62.10;;;;;;5011531;28;20029;-72
2021/07/25 10:15:55;;;;;;;11.02;9.50;;;29.00;62.70;;;;;;5017728;28;20029;-72
2021/07/25 10:18:41;;;;;;;11.18;9.60;;;29.10;63.00;;;;;;5031742;28;20041;-72
2021/07/25 10:21:31;;;;;;;10.80;9.40;;;29.20;63.10;;;;;;5031913;28;20025;-72
2021/07/25 10:24:18;;;;;;;11.35;9.50;;;29.20;62.20;;;;;;5017290;28;20042;-72
2021/07/25 10:27:04;;;;;;;12.05;9.55;;;29.30;62.40;;;;;;5026712;28;20659;-72
2021/07/25 10:29:53;;;;;;;11.02;9.82;;;29.40;63.00;;;;;;5024935;28;20066;-71
2021/07/25 10:32:43;;;;;;;12.75;9.52;;;29.40;62.20;;;;;;5010893;28;20034;-71
2021/07/25 10:35:29;;;;;;;13.15;10.18;;;29.50;62.60;;;;;;5005135;28;20120;-72
2021/07/25 10:38:15;;;;;;;10.77;9.68;;;29.60;62.50;;;;;;5007530;28;20073;-71
2021/07/25 10:41:02;;;;;;;14.90;10.05;;;29.70;62.00;;;;;;5011443;28;20478;-72
2021/07/25 10:43:49;;;;;;;11.43;9.15;;;29.70;61.30;;;;;;5009739;28;20034;-71
2021/07/25 10:46:34;;;;;;;12.50;9.90;;;29.80;60.90;;;;;;5009296;28;20371;-71
2021/07/25 10:49:20;;;;;;;11.35;9.45;;;29.80;60.60;;;;;;5011747;28;20046;-71
2021/07/25 10:52:06;;;;;;;10.80;9.10;;;29.90;61.50;;;;;;5010775;28;20038;-71
2021/07/25 10:54:52;;;;;;;11.15;9.48;;;30.00;60.60;;;;;;5012479;28;20200;-71
2021/07/25 10:58:02;;;;;;;10.55;9.43;;;30.00;60.50;;;;;;5010540;28;20545;-71
2021/07/25 11:00:50;;;;;;;11.32;9.85;;;30.10;61.10;;;;;;5007917;28;20077;-71
2021/07/25 11:03:39;;;;;;;12.77;9.77;;;30.10;60.60;;;;;;5003537;28;20030;-72
2021/07/25 11:06:25;;;;;;;11.00;9.25;;;30.20;60.60;;;;;;5000397;28;20030;-73
2021/07/25 11:09:49;;;;;;;10.25;9.23;;;30.30;60.60;;;;;;5012950;28;20033;-72
2021/07/25 11:12:47;;;;;;;10.40;9.00;;;30.40;60.50;;;;;;5004553;28;20030;-73
2021/07/25 11:15:35;;;;;;;10.75;8.60;;;30.50;59.50;;;;;;4995989;28;20116;-71
2021/07/25 11:18:30;;;;;;;10.63;8.68;;;30.60;59.90;;;;;;5011922;28;20042;-72
2021/07/25 11:21:36;;;;;;;10.35;8.88;;;30.60;59.00;;;;;;5012346;28;20065;-72
2021/07/25 11:24:22;;;;;;;9.88;8.82;;;30.70;58.50;;;;;;5011726;28;20041;-71
2021/07/25 11:27:08;;;;;;;12.85;9.38;;;30.60;58.30;;;;;;5021037;28;20049;-72
2021/07/25 11:29:46;;;;;;;10.43;8.68;;;30.70;58.60;;;;;;5015206;28;20033;-72
2021/07/25 11:32:36;;;;;;;13.55;9.55;;;30.70;57.70;;;;;;5013433;28;20394;-71
2021/07/25 11:35:06;;;;;;;11.93;9.52;;;30.80;58.40;;;;;;5014754;28;20593;-71
2021/07/25 11:37:38;;;;;;;11.10;9.38;;;30.80;58.50;;;;;;5011385;28;20064;-71
2021/07/25 11:40:07;;;;;;;10.73;9.32;;;30.90;58.30;;;;;;5003823;28;20141;-71
2021/07/25 11:42:33;;;;;;;12.05;10.10;;;31.00;57.80;;;;;;5003842;28;20522;-72
2021/07/25 11:45:04;;;;;;;11.27;9.15;;;31.10;57.80;;;;;;4991268;28;20133;-72
2021/07/25 11:47:30;;;;;;;11.85;9.20;;;31.10;57.50;;;;;;5012516;28;20077;-72
2021/07/25 11:49:56;;;;;;;10.27;9.20;;;31.10;56.60;;;;;;5031512;28;20073;-72
2021/07/25 11:52:24;;;;;;;9.93;8.90;;;31.10;56.40;;;;;;5024664;28;20393;-71
2021/07/25 11:54:51;;;;;;;10.60;8.85;;;31.10;57.40;;;;;;5026826;28;20026;-72
2021/07/25 11:57:23;;;;;;;11.05;9.32;;;31.20;58.00;;;;;;5028152;28;20489;-72
2021/07/25 12:00:03;;;;;;;10.25;8.68;;;31.20;58.40;;;;;;5033296;28;20034;-72
2021/07/25 12:02:38;;;;;;;12.13;8.95;;;31.30;57.80;;;;;;5031929;28;20138;-72
2021/07/25 12:05:06;;;;;;;11.65;9.13;;;31.50;56.90;;;;;;5031134;28;20073;-71
2021/07/25 12:07:34;;;;;;;12.90;8.95;;;31.50;57.60;;;;;;5024250;28;20056;-72
2021/07/25 12:10:00;;;;;;;10.02;9.02;;;31.50;57.80;;;;;;5031739;28;20056;-73
2021/07/25 12:12:29;;;;;;;11.95;10.02;;;31.50;56.80;;;;;;5027268;28;20057;-73
2021/07/25 12:15:00;;;;;;;12.45;10.27;;;31.50;57.00;;;;;;5029389;28;22340;-73
2021/07/25 12:17:49;;;;;;;10.73;9.50;;;31.50;57.40;;;;;;5031682;28;20459;-74
2021/07/25 12:20:18;;;;;;;8.77;7.72;;;31.60;56.60;;;;;;5032870;28;20112;-75
2021/07/25 12:22:51;;;;;;;13.13;8.95;;;31.80;56.00;;;;;;5015208;28;20395;-69
2021/07/25 12:25:53;;;;;;;10.65;9.13;;;31.80;56.10;;;;;;5033519;28;20036;-70
2021/07/25 12:28:38;;;;;;;11.70;9.68;;;32.00;55.80;;;;;;5032263;28;20028;-70
2021/07/25 12:31:27;;;;;;;11.40;8.90;;;32.00;55.80;;;;;;5034041;28;20041;-70
2021/07/25 12:34:11;;;;;;;10.10;9.10;;;31.90;55.20;;;;;;5028204;28;20496;-72
2021/07/25 12:36:37;;;;;;;10.40;9.02;;;31.90;54.50;;;;;;5030745;28;20041;-71
2021/07/25 12:39:19;;;;;;;11.10;9.73;;;31.80;54.70;;;;;;5027731;28;20048;-71
2021/07/25 12:42:03;;;;;;;11.25;9.23;;;31.90;55.10;;;;;;5026408;28;20421;-71
2021/07/25 12:44:47;;;;;;;9.82;8.65;;;31.90;54.70;;;;;;5030216;28;20044;-71
2021/07/25 12:47:31;;;;;;;9.43;8.48;;;31.90;55.10;;;;;;5029128;28;20068;-72
2021/07/25 12:50:16;;;;;;;9.25;8.32;;;32.00;54.70;;;;;;5031282;28;20048;-73
2021/07/25 12:53:18;;;;;;;12.38;9.80;;;32.00;54.00;;;;;;5015904;28;20033;-73
2021/07/25 12:56:04;;;;;;;10.32;8.65;;;32.10;53.80;;;;;;5015836;28;20040;-74
2021/07/25 12:58:51;;;;;;;9.68;8.40;;;32.10;54.00;;;;;;5030513;28;20083;-72
2021/07/25 13:04:27;;;;;;;12.25;9.43;;;32.20;53.30;;;;;;5026021;28;20071;-72
2021/07/25 13:07:14;;;;;;;10.15;9.05;;;32.20;53.30;;;;;;5028317;28;20040;-73
2021/07/25 13:09:58;;;;;;;9.77;8.75;;;32.30;53.80;;;;;;5030927;28;20079;-75
2021/07/25 13:12:42;;;;;;;10.63;8.73;;;32.30;53.50;;;;;;5030084;28;20064;-73
2021/07/25 13:15:26;;;;;;;10.45;9.35;;;32.20;53.80;;;;;;5022012;28;20164;-72
2021/07/25 13:18:10;;;;;;;12.02;9.68;;;32.20;53.50;;;;;;5014596;28;20595;-72
2021/07/25 13:20:54;;;;;;;10.50;9.45;;;32.10;53.50;;;;;;5027010;28;20065;-72
2021/07/25 13:23:38;;;;;;;11.07;9.23;;;32.10;53.20;;;;;;5022660;28;20039;-72
2021/07/25 13:26:24;;;;;;;10.98;9.02;;;32.10;53.40;;;;;;5021976;28;20036;-73
2021/07/25 13:28:51;;;;;;;16.27;11.75;;;32.00;53.60;;;;;;5011266;28;20029;-72
2021/07/25 13:31:17;;;;;;;17.13;11.27;;;32.00;54.50;;;;;;5028661;28;20022;-72
2021/07/25 13:33:43;;;;;;;13.27;10.38;;;31.90;54.30;;;;;;5029364;28;20032;-72
2021/07/25 13:36:09;;;;;;;9.77;8.77;;;31.90;54.50;;;;;;5027924;28;20033;-74
2021/07/25 13:38:37;;;;;;;12.90;10.20;;;31.80;54.30;;;;;;5025172;28;20037;-73
2021/07/25 13:41:03;;;;;;;10.38;8.98;;;31.80;54.50;;;;;;5029492;28;20036;-73
2021/07/25 13:43:29;;;;;;;13.13;9.98;;;31.80;54.60;;;;;;5029360;28;20033;-72
2021/07/25 13:45:59;;;;;;;11.63;9.07;;;31.70;53.90;;;;;;5022936;28;20034;-72
2021/07/25 13:48:33;;;;;;;11.18;9.70;;;31.70;54.20;;;;;;5028334;28;20048;-72
2021/07/25 13:51:02;;;;;;;10.15;9.07;;;31.70;54.20;;;;;;5032233;28;20447;-73
2021/07/25 13:53:28;;;;;;;12.10;9.77;;;31.70;54.60;;;;;;5033012;28;20037;-73
2021/07/25 13:55:54;;;;;;;11.65;9.07;;;31.60;54.20;;;;;;5033541;28;20026;-72
2021/07/25 13:58:20;;;;;;;10.60;9.50;;;31.50;54.30;;;;;;5036882;28;20033;-74
2021/07/25 14:00:45;;;;;;;13.18;9.98;;;31.40;54.50;;;;;;5037972;28;20037;-74
2021/07/25 14:03:11;;;;;;;11.95;9.57;;;31.30;54.50;;;;;;5037728;28;20196;-72
2021/07/25 14:05:36;;;;;;;13.65;9.68;;;31.20;54.80;;;;;;5035472;28;20061;-73